createdAt,value
2019-05-19T00:01:36.931Z,100.00
2019-05-19T00:04:03.010Z,100.00
2019-05-19T00:06:29.003Z,100.00
2019-05-19T00:08:55.026Z,100.00
2019-05-19T00:11:21.004Z,100.00
2019-05-19T00:13:46.865Z,100.00
2019-05-19T00:16:12.720Z,100.00
2019-05-19T00:18:38.565Z,100.00
2019-05-19T00:21:04.525Z,100.00
2019-05-19T00:23:30.551Z,100.00
2019-05-19T00:25:56.425Z,100.00
2019-05-19T00:28:22.288Z,100.00
2019-05-19T00:30:48.224Z,100.00
2019-05-19T00:33:14.094Z,100.00
2019-05-19T00:35:39.913Z,100.00
2019-05-19T00:38:05.855Z,100.00
2019-05-19T00:40:31.745Z,100.00
2019-05-19T00:42:57.707Z,100.00
2019-05-19T00:45:23.560Z,100.00
2019-05-19T00:47:49.542Z,100.00
2019-05-19T00:50:15.600Z,100.00
2019-05-19T00:52:41.434Z,100.00
2019-05-19T00:55:07.566Z,100.00
2019-05-19T00:57:34.917Z,100.00
2019-05-19T01:00:00.765Z,100.00
2019-05-19T01:02:26.726Z,100.00
2019-05-19T01:04:52.587Z,100.00
2019-05-19T01:07:18.534Z,100.00
2019-05-19T01:09:44.441Z,100.00
2019-05-19T01:12:10.397Z,100.00
2019-05-19T01:14:36.223Z,100.00
2019-05-19T01:17:02.507Z,100.00
2019-05-19T01:19:28.480Z,100.00
2019-05-19T01:21:54.521Z,100.00
2019-05-19T01:24:20.485Z,100.00
2019-05-19T01:26:46.306Z,100.00
2019-05-19T01:29:12.342Z,100.00
2019-05-19T01:31:38.397Z,100.00
2019-05-19T01:34:04.368Z,100.00
2019-05-19T01:36:30.316Z,100.00
2019-05-19T01:38:56.277Z,100.00
2019-05-19T01:41:22.155Z,100.00
2019-05-19T01:43:48.108Z,100.00
2019-05-19T01:46:14.053Z,100.00
2019-05-19T01:48:40.012Z,100.00
2019-05-19T01:51:05.846Z,100.00
2019-05-19T01:53:31.805Z,100.00
2019-05-19T01:55:57.639Z,100.00
2019-05-19T01:58:23.600Z,100.00
2019-05-19T02:00:49.523Z,100.00
2019-05-19T02:03:15.468Z,100.00
2019-05-19T02:05:41.306Z,100.00
2019-05-19T02:08:07.152Z,100.00
2019-05-19T02:10:33.110Z,100.00
2019-05-19T02:12:58.956Z,100.00
2019-05-19T02:15:25.004Z,100.00
2019-05-19T02:17:51.142Z,100.00
2019-05-19T02:20:30.572Z,100.00
2019-05-19T02:22:45.266Z,100.00
2019-05-19T02:25:11.529Z,100.00
2019-05-19T02:27:37.469Z,100.00
2019-05-19T02:30:05.544Z,100.00
2019-05-19T02:32:31.371Z,100.00
2019-05-19T02:34:57.245Z,100.00
2019-05-19T02:37:23.097Z,100.00
2019-05-19T02:39:49.049Z,100.00
2019-05-19T02:42:14.996Z,100.00
2019-05-19T02:44:41.429Z,100.00
2019-05-19T02:47:08.098Z,100.00
2019-05-19T02:49:34.093Z,100.00
2019-05-19T02:52:01.947Z,100.00
2019-05-19T02:54:28.625Z,100.00
2019-05-19T02:56:54.667Z,100.00
2019-05-19T02:59:21.422Z,100.00
2019-05-19T03:02:01.241Z,100.00
2019-05-19T03:04:27.124Z,100.00
2019-05-19T03:06:52.964Z,100.00
2019-05-19T03:09:18.900Z,100.00
2019-05-19T03:11:44.852Z,100.00
2019-05-19T03:14:10.662Z,100.00
2019-05-19T03:16:36.538Z,100.00
2019-05-19T03:19:02.489Z,100.00
2019-05-19T03:21:28.329Z,100.00
2019-05-19T03:23:54.263Z,100.00
2019-05-19T03:26:20.226Z,100.00
2019-05-19T03:28:46.060Z,100.00
2019-05-19T03:31:16.788Z,100.00
2019-05-19T03:33:44.555Z,100.00
2019-05-19T03:36:10.394Z,100.00
2019-05-19T03:38:36.241Z,100.00
2019-05-19T03:41:02.177Z,100.00
2019-05-19T03:43:28.017Z,100.00
2019-05-19T03:45:53.971Z,100.00
2019-05-19T03:48:19.810Z,100.00
2019-05-19T03:50:45.679Z,100.00
2019-05-19T03:53:11.526Z,100.00
2019-05-19T03:55:37.394Z,100.00
2019-05-19T03:58:03.352Z,100.00
2019-05-19T04:00:29.188Z,100.00
2019-05-19T04:02:55.031Z,100.00
2019-05-19T04:05:20.932Z,100.00
2019-05-19T04:07:46.742Z,100.00
2019-05-19T04:10:12.879Z,100.00
2019-05-19T04:12:38.759Z,100.00
2019-05-19T04:15:04.860Z,100.00
2019-05-19T04:17:30.844Z,100.00
2019-05-19T04:19:56.701Z,100.00
2019-05-19T04:22:22.530Z,100.00
2019-05-19T04:24:48.337Z,100.00
2019-05-19T04:27:14.188Z,100.00
2019-05-19T04:29:40.136Z,100.00
2019-05-19T04:32:06.095Z,100.00
2019-05-19T04:34:31.932Z,100.00
2019-05-19T04:36:57.778Z,100.00
2019-05-19T04:39:23.617Z,100.00
2019-05-19T04:41:49.562Z,100.00
2019-05-19T04:44:15.394Z,100.00
2019-05-19T04:46:41.259Z,100.00
2019-05-19T04:49:07.109Z,100.00
2019-05-19T04:51:33.065Z,100.00
2019-05-19T04:53:58.903Z,100.00
2019-05-19T04:56:24.975Z,100.00
2019-05-19T04:58:50.813Z,100.00
2019-05-19T05:01:16.751Z,100.00
2019-05-19T05:03:42.593Z,100.00
2019-05-19T05:06:08.571Z,100.00
2019-05-19T05:08:34.498Z,100.00
2019-05-19T05:11:00.366Z,100.00
2019-05-19T05:13:26.323Z,100.00
2019-05-19T05:15:52.263Z,100.00
2019-05-19T05:18:18.229Z,100.00
2019-05-19T05:20:44.048Z,100.00
2019-05-19T05:23:09.911Z,100.00
2019-05-19T05:25:35.741Z,100.00
2019-05-19T05:28:01.686Z,100.00
2019-05-19T05:30:27.530Z,100.00
2019-05-19T05:32:53.387Z,100.00
2019-05-19T05:35:19.320Z,100.00
2019-05-19T05:37:45.469Z,100.00
2019-05-19T05:40:11.690Z,100.00
2019-05-19T05:42:37.555Z,100.00
2019-05-19T05:45:06.299Z,100.00
2019-05-19T05:47:32.265Z,100.00
2019-05-19T05:49:58.195Z,100.00
2019-05-19T05:52:37.527Z,100.00
2019-05-19T05:54:51.893Z,100.00
2019-05-19T05:57:17.750Z,100.00
2019-05-19T05:59:43.686Z,100.00
2019-05-19T06:02:09.542Z,100.00
2019-05-19T06:04:35.469Z,100.00
2019-05-19T06:07:01.337Z,100.00
2019-05-19T06:09:27.176Z,100.00
2019-05-19T06:11:53.123Z,100.00
2019-05-19T06:14:19.052Z,100.00
2019-05-19T06:16:45.030Z,100.00
2019-05-19T06:19:10.870Z,100.00
2019-05-19T06:21:36.823Z,100.00
2019-05-19T06:24:03.864Z,100.00
2019-05-19T06:26:29.799Z,99.33
2019-05-19T06:28:55.668Z,99.12
2019-05-19T06:31:21.514Z,96.91
2019-05-19T06:33:47.415Z,94.68
2019-05-19T06:36:13.258Z,93.57
2019-05-19T06:38:39.171Z,95.38
2019-05-19T06:41:05.107Z,92.07
2019-05-19T06:43:31.317Z,94.64
2019-05-19T06:45:59.246Z,90.68
2019-05-19T06:48:25.225Z,88.12
2019-05-19T06:50:51.079Z,88.77
2019-05-19T06:53:16.950Z,88.53
2019-05-19T06:55:42.813Z,89.92
2019-05-19T06:58:08.671Z,88.33
2019-05-19T07:00:34.680Z,86.37
2019-05-19T07:03:00.558Z,86.88
2019-05-19T07:05:26.500Z,86.26
2019-05-19T07:07:52.352Z,86.63
2019-05-19T07:10:19.464Z,85.29
2019-05-19T07:12:45.336Z,84.42
2019-05-19T07:15:11.374Z,86.33
2019-05-19T07:17:37.261Z,85.54
2019-05-19T07:20:04.297Z,85.07
2019-05-19T07:22:30.143Z,84.65
2019-05-19T07:24:55.978Z,84.69
2019-05-19T07:27:21.820Z,82.22
2019-05-19T07:29:47.703Z,81.44
2019-05-19T07:32:13.563Z,82.34
2019-05-19T07:34:39.542Z,82.34
2019-05-19T07:37:05.382Z,81.82
2019-05-19T07:39:31.233Z,80.68
2019-05-19T07:41:57.064Z,78.51
2019-05-19T07:44:22.924Z,77.01
2019-05-19T07:46:48.773Z,77.86
2019-05-19T07:49:14.629Z,77.20
2019-05-19T07:51:40.563Z,74.75
2019-05-19T07:54:06.416Z,74.87
2019-05-19T07:56:32.585Z,75.50
2019-05-19T07:58:58.565Z,73.07
2019-05-19T08:01:24.414Z,73.66
2019-05-19T08:03:50.276Z,72.96
2019-05-19T08:06:16.114Z,72.25
2019-05-19T08:08:41.979Z,71.15
2019-05-19T08:11:07.813Z,72.29
2019-05-19T08:13:33.685Z,70.01
2019-05-19T08:15:59.524Z,70.94
2019-05-19T08:18:25.427Z,70.61
2019-05-19T08:20:51.356Z,72.26
2019-05-19T08:23:17.196Z,69.69
2019-05-19T08:25:43.035Z,70.70
2019-05-19T08:28:09.303Z,69.38
2019-05-19T08:30:35.234Z,68.02
2019-05-19T08:33:01.065Z,69.73
2019-05-19T08:35:26.922Z,69.77
2019-05-19T08:37:52.756Z,65.51
2019-05-19T08:40:18.635Z,68.73
2019-05-19T08:42:44.534Z,65.50
2019-05-19T08:45:10.581Z,68.71
2019-05-19T08:47:36.431Z,64.90
2019-05-19T08:50:04.814Z,64.78
2019-05-19T08:52:30.636Z,63.30
2019-05-19T08:54:56.507Z,61.46
2019-05-19T08:57:22.379Z,59.95
2019-05-19T08:59:48.236Z,58.14
2019-05-19T09:02:14.083Z,56.02
2019-05-19T09:04:39.931Z,58.47
2019-05-19T09:07:05.873Z,56.83
2019-05-19T09:09:31.754Z,57.40
2019-05-19T09:11:57.620Z,56.08
2019-05-19T09:14:23.478Z,57.17
2019-05-19T09:16:51.873Z,54.91
2019-05-19T09:19:17.714Z,54.59
2019-05-19T09:21:43.571Z,53.75
2019-05-19T09:24:09.440Z,54.33
2019-05-19T09:26:35.323Z,54.00
2019-05-19T09:29:01.693Z,50.31
2019-05-19T09:31:27.662Z,50.14
2019-05-19T09:33:53.523Z,51.20
2019-05-19T09:36:19.402Z,49.16
2019-05-19T09:38:45.258Z,47.00
2019-05-19T09:41:11.126Z,46.63
2019-05-19T09:43:37.317Z,45.84
2019-05-19T09:46:03.175Z,45.07
2019-05-19T09:48:29.043Z,46.25
2019-05-19T09:50:55.071Z,45.95
2019-05-19T09:53:21.026Z,45.66
2019-05-19T09:55:46.998Z,44.82
2019-05-19T09:58:17.093Z,44.80
2019-05-19T10:00:41.955Z,45.80
2019-05-19T10:03:07.929Z,45.20
2019-05-19T10:05:33.868Z,46.21
2019-05-19T10:07:59.740Z,45.17
2019-05-19T10:10:33.153Z,44.83
2019-05-19T10:12:59.094Z,45.76
2019-05-19T10:15:24.994Z,46.01
2019-05-19T10:17:50.871Z,44.96
2019-05-19T10:20:17.388Z,45.15
2019-05-19T10:22:43.360Z,44.24
2019-05-19T10:25:21.733Z,45.38
2019-05-19T10:27:37.669Z,45.05
2019-05-19T10:30:06.863Z,43.23
2019-05-19T10:32:32.977Z,42.84
2019-05-19T10:34:58.804Z,41.50
2019-05-19T10:37:24.680Z,40.94
2019-05-19T10:39:50.533Z,42.00
2019-05-19T10:42:16.776Z,41.82
2019-05-19T10:44:44.626Z,43.65
2019-05-19T10:47:10.526Z,47.73
2019-05-19T10:49:36.366Z,43.54
2019-05-19T10:52:02.688Z,43.55
2019-05-19T10:54:28.539Z,41.96
2019-05-19T10:56:54.514Z,41.83
2019-05-19T10:59:20.543Z,43.52
2019-05-19T11:01:49.710Z,43.98
2019-05-19T11:04:15.561Z,45.70
2019-05-19T11:06:41.411Z,42.03
2019-05-19T11:09:07.463Z,40.19
2019-05-19T11:11:33.493Z,40.27
2019-05-19T11:13:59.349Z,40.38
2019-05-19T11:16:27.217Z,41.09
2019-05-19T11:18:54.341Z,36.63
2019-05-19T11:21:21.807Z,37.33
2019-05-19T11:23:47.677Z,38.68
2019-05-19T11:26:13.532Z,39.21
2019-05-19T11:28:39.522Z,38.42
2019-05-19T11:31:05.379Z,39.66
2019-05-19T11:33:31.281Z,38.41
2019-05-19T11:35:57.111Z,39.17
2019-05-19T11:38:22.997Z,39.48
2019-05-19T11:40:49.166Z,39.91
2019-05-19T11:43:15.019Z,39.20
2019-05-19T11:45:40.883Z,40.29
2019-05-19T11:48:06.729Z,40.02
2019-05-19T11:50:34.776Z,39.24
2019-05-19T11:53:00.743Z,39.11
2019-05-19T11:55:32.019Z,40.76
2019-05-19T11:57:57.861Z,42.71
2019-05-19T12:00:25.074Z,41.77
2019-05-19T12:02:51.013Z,42.80
2019-05-19T12:05:16.960Z,41.79
2019-05-19T12:07:42.861Z,42.80
2019-05-19T12:10:09.073Z,42.52
2019-05-19T12:12:35.017Z,42.09
2019-05-19T12:15:01.759Z,42.03
2019-05-19T12:17:29.304Z,40.46
2019-05-19T12:19:55.188Z,39.06
2019-05-19T12:22:21.049Z,36.96
2019-05-19T12:24:46.898Z,37.07
2019-05-19T12:27:12.747Z,38.96
2019-05-19T12:29:38.772Z,36.09
2019-05-19T12:32:04.714Z,35.69
2019-05-19T12:34:30.599Z,34.69
2019-05-19T12:36:56.826Z,34.95
2019-05-19T12:39:22.703Z,36.04
2019-05-19T12:41:48.532Z,36.82
2019-05-19T12:44:14.525Z,35.71
2019-05-19T12:46:40.376Z,35.46
2019-05-19T12:49:08.418Z,35.82
2019-05-19T12:51:34.280Z,35.56
2019-05-19T12:54:00.112Z,37.44
2019-05-19T12:56:38.718Z,35.99
2019-05-19T12:58:54.845Z,34.30
2019-05-19T13:01:20.683Z,35.63
2019-05-19T13:03:46.565Z,35.07
2019-05-19T13:06:12.420Z,34.96
2019-05-19T13:08:39.052Z,36.21
2019-05-19T13:11:04.952Z,34.44
2019-05-19T13:13:30.870Z,35.62
2019-05-19T13:15:56.757Z,34.27
2019-05-19T13:18:23.359Z,34.03
2019-05-19T13:20:49.265Z,35.12
2019-05-19T13:23:15.222Z,36.09
2019-05-19T13:25:41.114Z,34.93
2019-05-19T13:28:07.053Z,34.33
2019-05-19T13:30:33.021Z,34.86
2019-05-19T13:32:58.899Z,34.44
2019-05-19T13:35:24.759Z,34.12
2019-05-19T13:37:50.656Z,34.42
2019-05-19T13:40:16.673Z,33.14
2019-05-19T13:42:42.555Z,32.97
2019-05-19T13:45:08.724Z,32.91
2019-05-19T13:47:34.564Z,33.27
2019-05-19T13:50:00.626Z,32.83
2019-05-19T13:52:26.492Z,31.35
2019-05-19T13:54:52.356Z,31.26
2019-05-19T13:57:18.626Z,31.16
2019-05-19T13:59:44.561Z,32.79
2019-05-19T14:02:10.505Z,32.98
2019-05-19T14:04:36.457Z,33.31
2019-05-19T14:07:02.378Z,33.88
2019-05-19T14:09:28.268Z,34.48
2019-05-19T14:11:54.146Z,31.77
2019-05-19T14:14:20.007Z,31.67
2019-05-19T14:16:45.871Z,31.91
2019-05-19T14:19:11.753Z,32.83
2019-05-19T14:21:37.614Z,32.85
2019-05-19T14:24:03.574Z,33.57
2019-05-19T14:26:29.452Z,32.32
2019-05-19T14:28:55.308Z,32.90
2019-05-19T14:31:21.205Z,33.96
2019-05-19T14:33:47.047Z,34.17
2019-05-19T14:36:12.953Z,34.20
2019-05-19T14:38:40.704Z,33.38
2019-05-19T14:41:06.584Z,34.97
2019-05-19T14:43:33.146Z,34.98
2019-05-19T14:46:02.307Z,32.54
2019-05-19T14:48:28.143Z,33.96
2019-05-19T14:50:55.953Z,32.55
2019-05-19T14:53:21.794Z,32.97
2019-05-19T14:55:47.631Z,33.28
2019-05-19T14:58:13.506Z,34.11
2019-05-19T15:00:39.370Z,34.58
2019-05-19T15:03:05.211Z,33.84
2019-05-19T15:05:31.275Z,33.62
2019-05-19T15:07:57.155Z,33.37
2019-05-19T15:10:23.035Z,34.84
2019-05-19T15:12:48.914Z,35.38
2019-05-19T15:15:15.084Z,36.92
2019-05-19T15:17:40.948Z,37.10
2019-05-19T15:20:07.127Z,36.00
2019-05-19T15:22:32.970Z,36.21
2019-05-19T15:24:58.877Z,36.28
2019-05-19T15:27:24.762Z,37.11
2019-05-19T15:29:50.688Z,35.88
2019-05-19T15:32:16.623Z,36.17
2019-05-19T15:34:42.526Z,35.96
2019-05-19T15:37:08.393Z,36.12
2019-05-19T15:39:34.254Z,36.47
2019-05-19T15:42:00.144Z,36.79
2019-05-19T15:44:26.004Z,35.65
2019-05-19T15:46:51.889Z,35.69
2019-05-19T15:49:17.731Z,37.24
2019-05-19T15:51:59.028Z,37.21
2019-05-19T15:54:11.490Z,36.87
2019-05-19T15:56:37.399Z,36.25
2019-05-19T15:59:03.322Z,34.57
2019-05-19T16:01:29.189Z,35.03
2019-05-19T16:03:55.149Z,34.60
2019-05-19T16:06:20.986Z,36.42
2019-05-19T16:08:46.876Z,36.68
2019-05-19T16:11:12.743Z,38.02
2019-05-19T16:13:38.757Z,37.56
2019-05-19T16:16:04.706Z,37.66
2019-05-19T16:18:30.576Z,38.72
2019-05-19T16:20:56.420Z,39.44
2019-05-19T16:23:22.278Z,38.57
2019-05-19T16:25:48.150Z,38.00
2019-05-19T16:28:13.993Z,38.68
2019-05-19T16:30:39.885Z,39.10
2019-05-19T16:33:05.743Z,39.22
2019-05-19T16:35:31.601Z,38.95
2019-05-19T16:37:57.480Z,38.56
2019-05-19T16:40:23.407Z,40.07
2019-05-19T16:42:49.266Z,40.10
2019-05-19T16:45:15.729Z,39.05
2019-05-19T16:47:41.593Z,39.07
2019-05-19T16:50:07.775Z,39.42
2019-05-19T16:52:33.595Z,38.64
2019-05-19T16:55:18.238Z,38.26
2019-05-19T16:57:44.200Z,38.63
2019-05-19T17:00:10.594Z,43.43
2019-05-19T17:02:36.535Z,45.93
2019-05-19T17:05:04.299Z,47.70
2019-05-19T17:07:30.167Z,48.86
2019-05-19T17:09:56.032Z,50.60
2019-05-19T17:12:21.877Z,51.02
2019-05-19T17:14:49.219Z,51.69
2019-05-19T17:17:15.180Z,52.26
2019-05-19T17:19:41.099Z,52.11
2019-05-19T17:22:06.987Z,52.56
2019-05-19T17:24:32.832Z,52.22
2019-05-19T17:26:58.746Z,52.42
2019-05-19T17:29:24.649Z,51.87
2019-05-19T17:31:50.534Z,51.54
2019-05-19T17:34:16.393Z,51.99
2019-05-19T17:36:42.228Z,51.85
2019-05-19T17:39:08.076Z,51.51
2019-05-19T17:41:33.963Z,52.10
2019-05-19T17:43:59.814Z,52.54
2019-05-19T17:46:25.666Z,51.78
2019-05-19T17:48:51.529Z,51.40
2019-05-19T17:51:17.407Z,50.99
2019-05-19T17:53:43.394Z,51.06
2019-05-19T17:56:09.362Z,50.68
2019-05-19T17:58:35.319Z,50.65
2019-05-19T18:01:01.178Z,50.78
2019-05-19T18:03:27.482Z,50.79
2019-05-19T18:05:53.458Z,50.49
2019-05-19T18:08:19.358Z,50.64
2019-05-19T18:10:45.252Z,51.10
2019-05-19T18:13:11.224Z,50.62
2019-05-19T18:15:37.110Z,50.65
2019-05-19T18:18:02.999Z,51.09
2019-05-19T18:20:28.891Z,50.58
2019-05-19T18:22:54.789Z,50.82
2019-05-19T18:25:20.671Z,51.07
2019-05-19T18:27:46.531Z,51.81
2019-05-19T18:30:13.010Z,52.07
2019-05-19T18:32:38.893Z,52.69
2019-05-19T18:35:05.008Z,53.07
2019-05-19T18:37:30.959Z,53.49
2019-05-19T18:39:56.912Z,54.13
2019-05-19T18:42:22.820Z,54.82
2019-05-19T18:44:48.693Z,54.36
2019-05-19T18:47:14.550Z,54.20
2019-05-19T18:49:40.465Z,53.88
2019-05-19T18:52:06.332Z,54.47
2019-05-19T18:54:32.202Z,54.77
2019-05-19T18:56:59.273Z,55.47
2019-05-19T18:59:25.158Z,53.01
2019-05-19T19:01:51.033Z,52.50
2019-05-19T19:04:16.950Z,52.67
2019-05-19T19:06:42.809Z,52.73
2019-05-19T19:09:09.110Z,53.26
2019-05-19T19:11:35.093Z,54.09
2019-05-19T19:14:01.072Z,56.24
2019-05-19T19:16:27.338Z,57.46
2019-05-19T19:18:53.227Z,58.87
2019-05-19T19:21:19.133Z,59.63
2019-05-19T19:23:44.998Z,59.76
2019-05-19T19:26:12.944Z,60.94
2019-05-19T19:28:38.832Z,60.93
2019-05-19T19:31:04.705Z,61.66
2019-05-19T19:33:30.580Z,61.50
2019-05-19T19:35:56.462Z,61.18
2019-05-19T19:38:22.385Z,61.21
2019-05-19T19:40:48.241Z,61.08
2019-05-19T19:43:14.914Z,60.65
2019-05-19T19:45:40.762Z,60.67
2019-05-19T19:48:06.643Z,61.64
2019-05-19T19:50:33.245Z,61.00
2019-05-19T19:52:59.150Z,61.95
2019-05-19T19:55:25.233Z,64.06
2019-05-19T19:57:51.101Z,65.07
2019-05-19T20:00:35.377Z,65.05
2019-05-19T20:03:01.373Z,65.10
2019-05-19T20:05:27.232Z,64.09
2019-05-19T20:07:53.221Z,63.86
2019-05-19T20:10:19.098Z,64.04
2019-05-19T20:12:44.985Z,64.12
2019-05-19T20:15:14.112Z,66.91
2019-05-19T20:17:39.949Z,69.30
2019-05-19T20:20:05.917Z,69.34
2019-05-19T20:22:31.758Z,67.72
2019-05-19T20:24:57.610Z,67.26
2019-05-19T20:27:23.463Z,68.06
2019-05-19T20:29:49.307Z,66.42
2019-05-19T20:32:15.146Z,66.66
2019-05-19T20:34:41.029Z,66.47
2019-05-19T20:37:06.870Z,65.81
2019-05-19T20:39:32.729Z,67.69
2019-05-19T20:41:58.622Z,69.09
2019-05-19T20:44:24.617Z,69.39
2019-05-19T20:46:50.444Z,69.98
2019-05-19T20:49:16.278Z,70.39
2019-05-19T20:51:42.163Z,73.56
2019-05-19T20:54:08.013Z,72.50
2019-05-19T20:56:33.867Z,71.97
2019-05-19T20:58:59.729Z,71.91
2019-05-19T21:01:25.625Z,71.72
2019-05-19T21:03:51.432Z,74.35
2019-05-19T21:06:17.306Z,78.46
2019-05-19T21:08:43.158Z,78.85
2019-05-19T21:11:08.984Z,80.32
2019-05-19T21:13:34.835Z,80.73
2019-05-19T21:16:00.650Z,83.92
2019-05-19T21:18:26.491Z,89.09
2019-05-19T21:20:52.341Z,90.29
2019-05-19T21:23:18.202Z,90.71
2019-05-19T21:25:44.048Z,90.24
2019-05-19T21:28:09.915Z,91.17
2019-05-19T21:30:35.738Z,88.32
2019-05-19T21:33:01.731Z,88.80
2019-05-19T21:35:27.590Z,86.73
2019-05-19T21:37:53.456Z,87.28
2019-05-19T21:40:19.384Z,89.90
2019-05-19T21:42:45.250Z,89.47
2019-05-19T21:45:11.296Z,91.09
2019-05-19T21:47:37.157Z,91.95
2019-05-19T21:50:05.738Z,91.63
2019-05-19T21:52:31.638Z,92.88
2019-05-19T21:54:57.497Z,93.74
2019-05-19T21:57:23.340Z,94.40
2019-05-19T21:59:49.200Z,96.06
2019-05-19T22:02:15.142Z,97.22
2019-05-19T22:04:41.012Z,97.51
2019-05-19T22:07:08.774Z,99.07
2019-05-19T22:09:34.677Z,99.45
2019-05-19T22:12:00.518Z,100.00
2019-05-19T22:14:26.372Z,100.00
2019-05-19T22:16:52.235Z,100.00
2019-05-19T22:19:18.071Z,100.00
2019-05-19T22:21:43.924Z,100.00
2019-05-19T22:24:09.784Z,100.00
2019-05-19T22:26:35.658Z,100.00
2019-05-19T22:29:01.810Z,100.00
2019-05-19T22:31:36.631Z,100.00
2019-05-19T22:33:55.433Z,100.00
2019-05-19T22:36:21.295Z,100.00
2019-05-19T22:38:47.251Z,100.00
2019-05-19T22:41:13.113Z,100.00
2019-05-19T22:43:38.960Z,100.00
2019-05-19T22:46:04.825Z,100.00
2019-05-19T22:48:30.692Z,100.00
2019-05-19T22:50:56.553Z,100.00
2019-05-19T22:53:22.631Z,100.00
2019-05-19T22:55:48.500Z,100.00
2019-05-19T22:58:14.363Z,100.00
2019-05-19T23:00:40.220Z,100.00
2019-05-19T23:03:06.073Z,100.00
2019-05-19T23:05:31.915Z,100.00
2019-05-19T23:07:57.784Z,100.00
2019-05-19T23:10:23.615Z,100.00
2019-05-19T23:12:49.451Z,100.00
2019-05-19T23:15:16.317Z,100.00
2019-05-19T23:17:42.349Z,100.00
2019-05-19T23:20:08.934Z,100.00
2019-05-19T23:22:34.787Z,100.00
2019-05-19T23:25:00.666Z,100.00
2019-05-19T23:27:26.530Z,100.00
2019-05-19T23:29:52.390Z,100.00
2019-05-19T23:32:18.339Z,100.00
2019-05-19T23:34:44.193Z,100.00
2019-05-19T23:37:10.062Z,100.00
2019-05-19T23:39:35.932Z,100.00
2019-05-19T23:42:01.788Z,100.00
2019-05-19T23:44:27.684Z,100.00
2019-05-19T23:46:53.538Z,100.00
2019-05-19T23:49:19.380Z,100.00
2019-05-19T23:51:45.219Z,100.00
2019-05-19T23:54:11.070Z,100.00
2019-05-19T23:56:36.978Z,100.00
2019-05-19T23:59:02.955Z,100.00
